Varna, Bulgaria
Current Conditions -  °F | °C
As of 5:00 PM on Thursday 23 Oct 2014 (Local Time) from LBWN Reporting Station
Scattered Clouds Scattered Clouds  
Wind Chill: 19°   Ceiling: Unl
Heat Index: 19°   Visibility: 6mi
Dew Point: 15°   Wind: 16mph
Humidity: 78%   Direction: 100°E
Pressure: 29.59"   Gusts: NA
Location:  43.21°N, 27.9°E
Report Text: LBWN 231400Z 10007MPS 9999 SCT045 19/15 Q1002 NOSIG
Loading
Personal Weather Stations






























Interactive Weather Map New forecast layout! Learn more

10-Day Weather Forecast

Advertisements
Track Severe Weather on mobile